RCH3512 RODN-RODN
Flight info
| Callsign | RCH3512 |
|---|---|
| Flight time | 2h 31m |
| Altitude | 21000 |
| Route | KXC DCT SJE DCT IGE DCT MJC DCT 2446N12734E/N0190A060 DCT 2437N12807E/N0150A020 STAY1/0020 DCT 2504N12839E/N0280F180 DCT TIT STAY2/0010 |
| Aircraft | C130/M-SDE2E3FGRY/H |
Departure
| Time | 2026-04-25 16:20 |
|---|---|
| Airport | Kadena Air Base (RODN) |
Arrival
| Time | 2026-04-25 18:51 |
|---|---|
| Airport | Kadena Air Base (RODN) |
| Time | Latitude | Longitude | Altitude | Speed | Heading |
|---|---|---|---|---|---|
| 2026-04-25 15:46 | 26.35138 | 127.75295 | 142 ft | 0 kts | 322° |
| 2026-04-25 16:11 | 26.35139 | 127.75293 | 142 ft | 1 kts | 306° |
| 2026-04-25 16:12 | 26.35137 | 127.75287 | 142 ft | 1 kts | 263° |
| 2026-04-25 16:12 | 26.35133 | 127.75284 | 142 ft | 1 kts | 221° |
| 2026-04-25 16:12 | 26.35123 | 127.75277 | 142 ft | 3 kts | 213° |
| 2026-04-25 16:12 | 26.35116 | 127.75272 | 142 ft | 4 kts | 213° |
| 2026-04-25 16:13 | 26.35066 | 127.75236 | 143 ft | 6 kts | 213° |
| 2026-04-25 16:13 | 26.35027 | 127.75207 | 144 ft | 7 kts | 213° |
| 2026-04-25 16:13 | 26.34985 | 127.75176 | 145 ft | 7 kts | 213° |
| 2026-04-25 16:13 | 26.34941 | 127.75144 | 146 ft | 7 kts | 213° |
| 2026-04-25 16:14 | 26.34898 | 127.75112 | 147 ft | 7 kts | 214° |
| 2026-04-25 16:14 | 26.34859 | 127.75081 | 149 ft | 6 kts | 222° |
| 2026-04-25 16:14 | 26.34825 | 127.75049 | 149 ft | 7 kts | 213° |
| 2026-04-25 16:14 | 26.34779 | 127.75043 | 151 ft | 7 kts | 168° |
| 2026-04-25 16:15 | 26.34757 | 127.75057 | 152 ft | 0 kts | 143° |
| 2026-04-25 16:16 | 26.34749 | 127.75064 | 152 ft | 3 kts | 143° |
| 2026-04-25 16:17 | 26.34721 | 127.75087 | 153 ft | 5 kts | 142° |
| 2026-04-25 16:17 | 26.34704 | 127.75102 | 154 ft | 2 kts | 141° |
| 2026-04-25 16:17 | 26.34685 | 127.75121 | 154 ft | 5 kts | 136° |
| 2026-04-25 16:17 | 26.34664 | 127.75161 | 154 ft | 7 kts | 105° |
| 2026-04-25 16:18 | 26.34677 | 127.75222 | 153 ft | 9 kts | 59° |
| 2026-04-25 16:18 | 26.34690 | 127.75241 | 153 ft | 4 kts | 52° |
| 2026-04-25 16:18 | 26.34690 | 127.75242 | 153 ft | 0 kts | 52° |
| 2026-04-25 16:19 | 26.34693 | 127.75246 | 153 ft | 6 kts | 52° |
| 2026-04-25 16:19 | 26.34895 | 127.75521 | 150 ft | 98 kts | 50° |
| 2026-04-25 16:20 | 26.36169 | 127.77328 | 851 ft | 178 kts | 53° |
| 2026-04-25 16:20 | 26.36904 | 127.78494 | 1419 ft | 185 kts | 54° |
| 2026-04-25 16:20 | 26.38421 | 127.80897 | 2098 ft | 197 kts | 55° |
| 2026-04-25 16:21 | 26.39182 | 127.82179 | 2328 ft | 199 kts | 57° |
| 2026-04-25 16:21 | 26.39902 | 127.83494 | 2235 ft | 200 kts | 59° |
| 2026-04-25 16:21 | 26.40606 | 127.84823 | 2288 ft | 198 kts | 55° |
| 2026-04-25 16:21 | 26.41629 | 127.85817 | 2304 ft | 197 kts | 21° |
| 2026-04-25 16:22 | 26.42966 | 127.85853 | 2297 ft | 196 kts | 338° |
| 2026-04-25 16:22 | 26.43930 | 127.84859 | 2420 ft | 194 kts | 293° |
| 2026-04-25 16:22 | 26.44135 | 127.83374 | 2697 ft | 196 kts | 269° |
| 2026-04-25 16:22 | 26.44057 | 127.81855 | 2983 ft | 197 kts | 265° |
| 2026-04-25 16:23 | 26.43938 | 127.80332 | 3265 ft | 197 kts | 265° |
| 2026-04-25 16:23 | 26.43820 | 127.78790 | 3544 ft | 206 kts | 265° |
| 2026-04-25 16:23 | 26.43705 | 127.77182 | 3856 ft | 210 kts | 265° |
| 2026-04-25 16:23 | 26.43598 | 127.75575 | 4206 ft | 211 kts | 266° |
| 2026-04-25 16:24 | 26.43493 | 127.73942 | 4508 ft | 212 kts | 266° |
| 2026-04-25 16:24 | 26.43391 | 127.72281 | 4819 ft | 213 kts | 266° |
| 2026-04-25 16:24 | 26.43292 | 127.70649 | 5136 ft | 214 kts | 266° |
| 2026-04-25 16:24 | 26.43193 | 127.68993 | 5440 ft | 215 kts | 266° |
| 2026-04-25 16:25 | 26.43094 | 127.67328 | 5742 ft | 216 kts | 266° |
| 2026-04-25 16:25 | 26.43061 | 127.66763 | 5848 ft | 216 kts | 266° |
| 2026-04-25 16:25 | 26.42896 | 127.63978 | 6355 ft | 218 kts | 266° |
| 2026-04-25 16:25 | 26.42796 | 127.62288 | 6668 ft | 219 kts | 266° |
| 2026-04-25 16:26 | 26.42728 | 127.61135 | 6883 ft | 222 kts | 266° |
| 2026-04-25 16:26 | 26.42589 | 127.58789 | 7356 ft | 232 kts | 266° |
| 2026-04-25 16:26 | 26.42482 | 127.56986 | 7724 ft | 233 kts | 266° |
| 2026-04-25 16:26 | 26.42375 | 127.55181 | 8091 ft | 235 kts | 266° |
| 2026-04-25 16:27 | 26.42302 | 127.53943 | 8346 ft | 236 kts | 266° |
| 2026-04-25 16:27 | 26.42194 | 127.52134 | 8715 ft | 237 kts | 266° |
| 2026-04-25 16:27 | 26.42084 | 127.50295 | 9091 ft | 239 kts | 266° |
| 2026-04-25 16:27 | 26.41971 | 127.48395 | 9504 ft | 251 kts | 266° |
| 2026-04-25 16:28 | 26.41854 | 127.46445 | 9937 ft | 253 kts | 266° |
| 2026-04-25 16:28 | 26.41735 | 127.44475 | 10377 ft | 255 kts | 266° |
| 2026-04-25 16:28 | 26.41616 | 127.42500 | 10814 ft | 257 kts | 266° |
| 2026-04-25 16:28 | 26.41496 | 127.40510 | 11254 ft | 258 kts | 266° |
| 2026-04-25 16:29 | 26.41374 | 127.38503 | 11702 ft | 260 kts | 266° |
| 2026-04-25 16:29 | 26.41252 | 127.36478 | 12153 ft | 262 kts | 266° |
| 2026-04-25 16:29 | 26.41128 | 127.34443 | 12605 ft | 264 kts | 266° |
| 2026-04-25 16:29 | 26.41003 | 127.32398 | 13060 ft | 266 kts | 266° |
| 2026-04-25 16:30 | 26.40877 | 127.30327 | 13524 ft | 268 kts | 266° |
| 2026-04-25 16:30 | 26.40749 | 127.28247 | 13981 ft | 270 kts | 266° |
| 2026-04-25 16:30 | 26.40621 | 127.26153 | 14449 ft | 272 kts | 266° |
| 2026-04-25 16:30 | 26.40491 | 127.24036 | 14919 ft | 274 kts | 266° |
| 2026-04-25 16:31 | 26.40360 | 127.21911 | 15388 ft | 276 kts | 266° |
| 2026-04-25 16:31 | 26.40227 | 127.19768 | 15869 ft | 278 kts | 266° |
| 2026-04-25 16:31 | 26.40093 | 127.17613 | 16345 ft | 279 kts | 266° |
| 2026-04-25 16:31 | 26.39959 | 127.15452 | 16821 ft | 280 kts | 266° |
| 2026-04-25 16:32 | 26.39823 | 127.13272 | 17292 ft | 280 kts | 266° |
| 2026-04-25 16:32 | 26.39688 | 127.11105 | 17761 ft | 281 kts | 266° |
| 2026-04-25 16:32 | 26.39552 | 127.08931 | 18224 ft | 281 kts | 266° |
| 2026-04-25 16:32 | 26.39415 | 127.06761 | 18676 ft | 281 kts | 266° |
| 2026-04-25 16:33 | 26.39279 | 127.04588 | 19124 ft | 281 kts | 266° |
| 2026-04-25 16:33 | 26.39142 | 127.02418 | 19565 ft | 281 kts | 266° |
| 2026-04-25 16:33 | 26.39004 | 127.00247 | 19999 ft | 281 kts | 266° |
| 2026-04-25 16:33 | 26.38867 | 126.98079 | 20424 ft | 280 kts | 266° |
| 2026-04-25 16:34 | 26.38729 | 126.95903 | 20847 ft | 280 kts | 266° |
| 2026-04-25 16:34 | 26.38589 | 126.93706 | 21029 ft | 289 kts | 266° |
| 2026-04-25 16:34 | 26.38443 | 126.91429 | 21061 ft | 301 kts | 266° |
| 2026-04-25 16:34 | 26.38294 | 126.89092 | 21055 ft | 311 kts | 266° |
| 2026-04-25 16:35 | 26.38136 | 126.86631 | 21051 ft | 318 kts | 266° |
| 2026-04-25 16:35 | 26.37978 | 126.84190 | 21048 ft | 319 kts | 266° |
| 2026-04-25 16:35 | 26.37819 | 126.81724 | 21045 ft | 318 kts | 266° |
| 2026-04-25 16:35 | 26.37660 | 126.79270 | 21046 ft | 318 kts | 266° |
| 2026-04-25 16:36 | 26.37501 | 126.76809 | 21046 ft | 320 kts | 266° |
| 2026-04-25 16:36 | 26.37446 | 126.75966 | 21045 ft | 320 kts | 265° |
| 2026-04-25 16:36 | 26.36315 | 126.72097 | 21046 ft | 319 kts | 238° |
| 2026-04-25 16:36 | 26.34916 | 126.70177 | 21052 ft | 319 kts | 227° |
| 2026-04-25 16:37 | 26.33368 | 126.68412 | 21048 ft | 319 kts | 225° |
| 2026-04-25 16:37 | 26.31787 | 126.66684 | 21046 ft | 319 kts | 224° |
| 2026-04-25 16:37 | 26.30181 | 126.64973 | 21045 ft | 319 kts | 224° |
| 2026-04-25 16:37 | 26.28569 | 126.63281 | 21046 ft | 319 kts | 223° |
| 2026-04-25 16:38 | 26.26945 | 126.61587 | 21046 ft | 319 kts | 223° |
| 2026-04-25 16:38 | 26.25323 | 126.59902 | 21046 ft | 319 kts | 223° |
| 2026-04-25 16:38 | 26.23701 | 126.58222 | 21046 ft | 319 kts | 223° |
| 2026-04-25 16:38 | 26.22069 | 126.56533 | 21046 ft | 319 kts | 223° |
| 2026-04-25 16:39 | 26.20444 | 126.54853 | 21046 ft | 319 kts | 223° |
| 2026-04-25 16:39 | 26.18819 | 126.53173 | 21046 ft | 319 kts | 223° |
| 2026-04-25 16:39 | 26.17190 | 126.51491 | 21046 ft | 319 kts | 223° |
| 2026-04-25 16:39 | 26.15565 | 126.49813 | 21046 ft | 319 kts | 223° |
| 2026-04-25 16:40 | 26.13940 | 126.48137 | 21046 ft | 319 kts | 223° |
| 2026-04-25 16:40 | 26.12309 | 126.46454 | 21046 ft | 319 kts | 223° |
| 2026-04-25 16:40 | 26.10680 | 126.44775 | 21046 ft | 319 kts | 223° |
| 2026-04-25 16:40 | 26.09052 | 126.43097 | 21046 ft | 319 kts | 223° |
| 2026-04-25 16:41 | 26.07423 | 126.41420 | 21046 ft | 319 kts | 223° |
| 2026-04-25 16:41 | 26.06344 | 126.40308 | 21046 ft | 319 kts | 223° |
| 2026-04-25 16:41 | 26.02533 | 126.36386 | 21046 ft | 319 kts | 223° |
| 2026-04-25 16:42 | 26.00904 | 126.34710 | 21046 ft | 319 kts | 223° |
| 2026-04-25 16:42 | 25.99275 | 126.33036 | 21046 ft | 319 kts | 223° |
| 2026-04-25 16:42 | 25.97646 | 126.31362 | 21046 ft | 319 kts | 223° |
| 2026-04-25 16:42 | 25.96017 | 126.29689 | 21046 ft | 319 kts | 223° |
| 2026-04-25 16:43 | 25.94386 | 126.28014 | 21046 ft | 319 kts | 223° |
| 2026-04-25 16:43 | 25.92753 | 126.26338 | 21046 ft | 319 kts | 223° |
| 2026-04-25 16:43 | 25.91126 | 126.24668 | 21046 ft | 319 kts | 223° |
| 2026-04-25 16:43 | 25.89496 | 126.22997 | 21046 ft | 319 kts | 223° |
| 2026-04-25 16:44 | 25.87870 | 126.21330 | 21046 ft | 319 kts | 223° |
| 2026-04-25 16:44 | 25.86229 | 126.19648 | 21046 ft | 319 kts | 223° |
| 2026-04-25 16:44 | 25.84601 | 126.17980 | 21046 ft | 319 kts | 223° |
| 2026-04-25 16:44 | 25.82996 | 126.16337 | 21046 ft | 319 kts | 223° |
| 2026-04-25 16:45 | 25.81338 | 126.14639 | 21046 ft | 319 kts | 223° |
| 2026-04-25 16:45 | 25.79698 | 126.12961 | 21048 ft | 324 kts | 223° |
| 2026-04-25 16:45 | 25.78030 | 126.11255 | 21047 ft | 327 kts | 223° |
| 2026-04-25 16:45 | 25.76362 | 126.09550 | 21045 ft | 326 kts | 223° |
| 2026-04-25 16:46 | 25.74693 | 126.07845 | 21045 ft | 326 kts | 223° |
| 2026-04-25 16:46 | 25.73024 | 126.06139 | 21046 ft | 326 kts | 223° |
| 2026-04-25 16:46 | 25.71359 | 126.04439 | 21046 ft | 326 kts | 223° |
| 2026-04-25 16:46 | 25.70814 | 126.03883 | 21046 ft | 326 kts | 223° |
| 2026-04-25 16:47 | 25.68019 | 126.01030 | 21046 ft | 326 kts | 223° |
| 2026-04-25 16:47 | 25.66346 | 125.99324 | 21046 ft | 326 kts | 223° |
| 2026-04-25 16:47 | 25.64679 | 125.97624 | 21046 ft | 326 kts | 223° |
| 2026-04-25 16:47 | 25.63011 | 125.95925 | 21046 ft | 326 kts | 223° |
| 2026-04-25 16:48 | 25.61341 | 125.94224 | 21046 ft | 326 kts | 223° |
| 2026-04-25 16:48 | 25.59673 | 125.92525 | 21046 ft | 326 kts | 223° |
| 2026-04-25 16:48 | 25.57998 | 125.90820 | 21046 ft | 326 kts | 223° |
| 2026-04-25 16:48 | 25.56331 | 125.89124 | 21046 ft | 326 kts | 223° |
| 2026-04-25 16:49 | 25.54660 | 125.87425 | 21046 ft | 326 kts | 223° |
| 2026-04-25 16:49 | 25.52991 | 125.85728 | 21046 ft | 326 kts | 223° |
| 2026-04-25 16:49 | 25.51339 | 125.84049 | 21046 ft | 326 kts | 223° |
| 2026-04-25 16:49 | 25.49645 | 125.82328 | 21046 ft | 326 kts | 223° |
| 2026-04-25 16:50 | 25.47975 | 125.80633 | 21046 ft | 326 kts | 223° |
| 2026-04-25 16:50 | 25.46323 | 125.78956 | 21046 ft | 326 kts | 223° |
| 2026-04-25 16:50 | 25.44652 | 125.77260 | 21046 ft | 326 kts | 223° |
| 2026-04-25 16:50 | 25.42958 | 125.75542 | 21046 ft | 326 kts | 223° |
| 2026-04-25 16:51 | 25.41311 | 125.73872 | 21046 ft | 326 kts | 223° |
| 2026-04-25 16:51 | 25.39635 | 125.72173 | 21046 ft | 326 kts | 223° |
| 2026-04-25 16:51 | 25.37964 | 125.70481 | 21046 ft | 326 kts | 223° |
| 2026-04-25 16:51 | 25.37398 | 125.69908 | 21046 ft | 326 kts | 223° |
| 2026-04-25 16:52 | 25.34622 | 125.67097 | 21046 ft | 326 kts | 223° |
| 2026-04-25 16:52 | 25.32948 | 125.65403 | 21046 ft | 326 kts | 223° |
| 2026-04-25 16:52 | 25.31276 | 125.63712 | 21046 ft | 326 kts | 223° |
| 2026-04-25 16:52 | 25.29599 | 125.62017 | 21046 ft | 326 kts | 223° |
| 2026-04-25 16:53 | 25.26258 | 125.58640 | 21046 ft | 326 kts | 223° |
| 2026-04-25 16:53 | 25.24584 | 125.56950 | 21046 ft | 326 kts | 223° |
| 2026-04-25 16:53 | 25.22909 | 125.55259 | 21046 ft | 326 kts | 223° |
| 2026-04-25 16:54 | 25.21233 | 125.53568 | 21046 ft | 326 kts | 223° |
| 2026-04-25 16:54 | 25.19560 | 125.51881 | 21046 ft | 326 kts | 223° |
| 2026-04-25 16:54 | 25.17885 | 125.50192 | 21046 ft | 326 kts | 223° |
| 2026-04-25 16:54 | 25.16215 | 125.48508 | 21046 ft | 326 kts | 223° |
| 2026-04-25 16:55 | 25.14531 | 125.46812 | 21045 ft | 326 kts | 223° |
| 2026-04-25 16:55 | 25.12862 | 125.45131 | 21046 ft | 326 kts | 223° |
| 2026-04-25 16:55 | 25.11183 | 125.43440 | 21046 ft | 326 kts | 223° |
| 2026-04-25 16:55 | 25.09507 | 125.41754 | 21046 ft | 326 kts | 223° |
| 2026-04-25 16:56 | 25.07836 | 125.40073 | 21046 ft | 326 kts | 223° |
| 2026-04-25 16:56 | 25.06153 | 125.38381 | 21046 ft | 326 kts | 223° |
| 2026-04-25 16:56 | 25.04480 | 125.36700 | 21046 ft | 326 kts | 223° |
| 2026-04-25 16:56 | 25.02826 | 125.35037 | 21046 ft | 326 kts | 223° |
| 2026-04-25 16:57 | 25.01130 | 125.33334 | 21046 ft | 326 kts | 223° |
| 2026-04-25 16:57 | 25.00583 | 125.32785 | 21045 ft | 326 kts | 223° |
| 2026-04-25 16:57 | 24.97770 | 125.29962 | 21046 ft | 326 kts | 223° |
| 2026-04-25 16:57 | 24.96115 | 125.28301 | 21046 ft | 326 kts | 223° |
| 2026-04-25 16:58 | 24.94437 | 125.26618 | 21046 ft | 326 kts | 223° |
| 2026-04-25 16:58 | 24.92758 | 125.24935 | 21046 ft | 326 kts | 223° |
| 2026-04-25 16:58 | 24.91082 | 125.23256 | 21045 ft | 326 kts | 223° |
| 2026-04-25 16:58 | 24.89406 | 125.21577 | 21045 ft | 326 kts | 223° |
| 2026-04-25 16:59 | 24.87725 | 125.19894 | 21046 ft | 326 kts | 223° |
| 2026-04-25 16:59 | 24.86048 | 125.18216 | 21046 ft | 326 kts | 223° |
| 2026-04-25 16:59 | 24.84366 | 125.16531 | 21044 ft | 326 kts | 223° |
| 2026-04-25 16:59 | 24.82824 | 125.14710 | 21045 ft | 326 kts | 232° |
| 2026-04-25 17:00 | 24.81539 | 125.12663 | 21046 ft | 326 kts | 239° |
| 2026-04-25 17:00 | 24.80423 | 125.10485 | 21046 ft | 326 kts | 242° |
| 2026-04-25 17:00 | 24.79354 | 125.08292 | 21046 ft | 326 kts | 242° |
| 2026-04-25 17:00 | 24.78300 | 125.06084 | 21046 ft | 326 kts | 243° |
| 2026-04-25 17:01 | 24.77258 | 125.03872 | 21046 ft | 326 kts | 243° |
| 2026-04-25 17:01 | 24.76222 | 125.01662 | 21046 ft | 326 kts | 243° |
| 2026-04-25 17:01 | 24.75183 | 124.99439 | 21046 ft | 326 kts | 243° |
| 2026-04-25 17:01 | 24.74149 | 124.97223 | 21046 ft | 326 kts | 243° |
| 2026-04-25 17:02 | 24.73112 | 124.95003 | 21046 ft | 326 kts | 243° |
| 2026-04-25 17:02 | 24.72079 | 124.92789 | 21046 ft | 326 kts | 243° |
| 2026-04-25 17:02 | 24.71046 | 124.90576 | 21046 ft | 326 kts | 243° |
| 2026-04-25 17:02 | 24.70361 | 124.89109 | 21046 ft | 326 kts | 243° |
| 2026-04-25 17:03 | 24.68977 | 124.86148 | 21046 ft | 326 kts | 243° |
| 2026-04-25 17:03 | 24.67940 | 124.83930 | 21046 ft | 326 kts | 243° |
| 2026-04-25 17:03 | 24.66905 | 124.81718 | 21046 ft | 326 kts | 243° |
| 2026-04-25 17:03 | 24.65879 | 124.79528 | 21046 ft | 326 kts | 243° |
| 2026-04-25 17:04 | 24.64833 | 124.77295 | 21046 ft | 326 kts | 243° |
| 2026-04-25 17:04 | 24.63795 | 124.75079 | 21046 ft | 326 kts | 243° |
| 2026-04-25 17:04 | 24.62769 | 124.72892 | 21045 ft | 326 kts | 243° |
| 2026-04-25 17:04 | 24.61717 | 124.70650 | 21046 ft | 326 kts | 243° |
| 2026-04-25 17:05 | 24.60694 | 124.68470 | 21046 ft | 326 kts | 243° |
| 2026-04-25 17:05 | 24.58616 | 124.64047 | 21046 ft | 326 kts | 243° |
| 2026-04-25 17:05 | 24.57576 | 124.61836 | 21046 ft | 326 kts | 243° |
| 2026-04-25 17:06 | 24.56534 | 124.59621 | 21046 ft | 326 kts | 243° |
| 2026-04-25 17:06 | 24.55496 | 124.57416 | 21046 ft | 326 kts | 243° |
| 2026-04-25 17:06 | 24.54457 | 124.55208 | 21046 ft | 326 kts | 243° |
| 2026-04-25 17:06 | 24.53417 | 124.53001 | 21046 ft | 326 kts | 243° |
| 2026-04-25 17:07 | 24.52374 | 124.50789 | 21046 ft | 326 kts | 243° |
| 2026-04-25 17:07 | 24.51330 | 124.48577 | 21046 ft | 326 kts | 243° |
| 2026-04-25 17:07 | 24.50288 | 124.46369 | 21046 ft | 326 kts | 243° |
| 2026-04-25 17:07 | 24.49247 | 124.44164 | 21046 ft | 326 kts | 243° |
| 2026-04-25 17:08 | 24.48203 | 124.41954 | 21046 ft | 326 kts | 243° |
| 2026-04-25 17:08 | 24.47163 | 124.39753 | 21046 ft | 326 kts | 243° |
| 2026-04-25 17:08 | 24.46119 | 124.37546 | 21046 ft | 326 kts | 243° |
| 2026-04-25 17:08 | 24.45074 | 124.35336 | 21046 ft | 326 kts | 243° |
| 2026-04-25 17:09 | 24.44032 | 124.33135 | 21046 ft | 326 kts | 243° |
| 2026-04-25 17:09 | 24.42763 | 124.31087 | 21041 ft | 326 kts | 225° |
| 2026-04-25 17:09 | 24.40886 | 124.29719 | 21043 ft | 327 kts | 201° |
| 2026-04-25 17:09 | 24.38659 | 124.29307 | 21046 ft | 328 kts | 176° |
| 2026-04-25 17:10 | 24.36485 | 124.30006 | 21045 ft | 329 kts | 150° |
| 2026-04-25 17:10 | 24.34832 | 124.31697 | 21045 ft | 329 kts | 123° |
| 2026-04-25 17:10 | 24.34041 | 124.34036 | 21047 ft | 329 kts | 96° |
| 2026-04-25 17:10 | 24.34289 | 124.36507 | 21046 ft | 329 kts | 70° |
| 2026-04-25 17:11 | 24.35231 | 124.38788 | 21052 ft | 330 kts | 63° |
| 2026-04-25 17:11 | 24.36252 | 124.40999 | 21048 ft | 329 kts | 63° |
| 2026-04-25 17:11 | 24.37297 | 124.43238 | 21045 ft | 329 kts | 63° |
| 2026-04-25 17:11 | 24.38347 | 124.45471 | 21045 ft | 329 kts | 63° |
| 2026-04-25 17:12 | 24.39402 | 124.47702 | 21046 ft | 329 kts | 62° |
| 2026-04-25 17:12 | 24.40455 | 124.49928 | 21046 ft | 329 kts | 62° |
| 2026-04-25 17:12 | 24.41510 | 124.52156 | 21046 ft | 329 kts | 62° |
| 2026-04-25 17:12 | 24.42567 | 124.54387 | 21046 ft | 329 kts | 62° |
| 2026-04-25 17:13 | 24.43621 | 124.56615 | 21046 ft | 329 kts | 62° |
| 2026-04-25 17:13 | 24.43978 | 124.57369 | 21046 ft | 329 kts | 62° |
| 2026-04-25 17:13 | 24.45733 | 124.61080 | 21046 ft | 329 kts | 62° |
| 2026-04-25 17:13 | 24.46784 | 124.63304 | 21046 ft | 329 kts | 62° |
| 2026-04-25 17:14 | 24.47486 | 124.64789 | 21046 ft | 329 kts | 62° |
| 2026-04-25 17:14 | 24.48539 | 124.67018 | 21046 ft | 329 kts | 62° |
| 2026-04-25 17:14 | 24.49606 | 124.69279 | 21046 ft | 329 kts | 62° |
| 2026-04-25 17:14 | 24.50659 | 124.71512 | 21046 ft | 329 kts | 63° |
| 2026-04-25 17:15 | 24.51696 | 124.73711 | 21046 ft | 329 kts | 63° |
| 2026-04-25 17:15 | 24.52747 | 124.75942 | 21045 ft | 329 kts | 63° |
| 2026-04-25 17:15 | 24.53800 | 124.78177 | 21046 ft | 329 kts | 63° |
| 2026-04-25 17:15 | 24.54851 | 124.80410 | 21046 ft | 329 kts | 63° |
| 2026-04-25 17:16 | 24.55902 | 124.82644 | 21043 ft | 329 kts | 63° |
| 2026-04-25 17:16 | 24.56955 | 124.84882 | 21045 ft | 329 kts | 63° |
| 2026-04-25 17:16 | 24.58003 | 124.87113 | 21046 ft | 329 kts | 63° |
| 2026-04-25 17:16 | 24.59053 | 124.89350 | 21046 ft | 329 kts | 63° |
| 2026-04-25 17:17 | 24.60105 | 124.91590 | 21046 ft | 329 kts | 63° |
| 2026-04-25 17:17 | 24.61151 | 124.93820 | 21046 ft | 329 kts | 63° |
| 2026-04-25 17:17 | 24.62203 | 124.96062 | 21046 ft | 329 kts | 63° |
| 2026-04-25 17:17 | 24.63249 | 124.98295 | 21046 ft | 329 kts | 63° |
| 2026-04-25 17:18 | 24.64299 | 125.00536 | 21046 ft | 329 kts | 63° |
| 2026-04-25 17:18 | 24.65347 | 125.02775 | 21046 ft | 329 kts | 63° |
| 2026-04-25 17:18 | 24.66390 | 125.05002 | 21046 ft | 329 kts | 63° |
| 2026-04-25 17:18 | 24.67441 | 125.07251 | 21046 ft | 329 kts | 63° |
| 2026-04-25 17:19 | 24.68486 | 125.09486 | 21046 ft | 329 kts | 63° |
| 2026-04-25 17:19 | 24.69534 | 125.11728 | 21046 ft | 329 kts | 63° |
| 2026-04-25 17:19 | 24.70578 | 125.13964 | 21046 ft | 329 kts | 63° |
| 2026-04-25 17:19 | 24.71624 | 125.16205 | 21046 ft | 329 kts | 63° |
| 2026-04-25 17:20 | 24.72670 | 125.18447 | 21046 ft | 329 kts | 63° |
| 2026-04-25 17:20 | 24.73716 | 125.20691 | 21046 ft | 329 kts | 63° |
| 2026-04-25 17:20 | 24.74758 | 125.22926 | 21046 ft | 329 kts | 63° |
| 2026-04-25 17:20 | 24.75804 | 125.25172 | 21046 ft | 329 kts | 63° |
| 2026-04-25 17:21 | 24.76772 | 125.27412 | 21043 ft | 329 kts | 69° |
| 2026-04-25 17:21 | 24.77375 | 125.29876 | 21048 ft | 330 kts | 80° |
| 2026-04-25 17:21 | 24.77599 | 125.32351 | 21048 ft | 330 kts | 87° |
| 2026-04-25 17:21 | 24.77678 | 125.34910 | 21046 ft | 330 kts | 89° |
| 2026-04-25 17:22 | 24.77722 | 125.37398 | 21046 ft | 330 kts | 89° |
| 2026-04-25 17:22 | 24.77741 | 125.39093 | 21045 ft | 330 kts | 89° |
| 2026-04-25 17:22 | 24.77763 | 125.42433 | 21045 ft | 329 kts | 90° |
| 2026-04-25 17:22 | 24.77774 | 125.44952 | 21046 ft | 329 kts | 90° |
| 2026-04-25 17:23 | 24.77781 | 125.47477 | 21046 ft | 329 kts | 90° |
| 2026-04-25 17:23 | 24.77787 | 125.49993 | 21046 ft | 329 kts | 90° |
| 2026-04-25 17:23 | 24.77792 | 125.52520 | 21046 ft | 329 kts | 90° |
| 2026-04-25 17:23 | 24.77796 | 125.55035 | 21046 ft | 329 kts | 90° |
| 2026-04-25 17:24 | 24.77799 | 125.57559 | 21046 ft | 329 kts | 90° |
| 2026-04-25 17:24 | 24.77802 | 125.60076 | 21046 ft | 329 kts | 90° |
| 2026-04-25 17:24 | 24.77805 | 125.62604 | 21046 ft | 329 kts | 90° |
| 2026-04-25 17:24 | 24.77807 | 125.65123 | 21046 ft | 329 kts | 90° |
| 2026-04-25 17:25 | 24.77808 | 125.67641 | 21046 ft | 329 kts | 90° |
| 2026-04-25 17:25 | 24.77809 | 125.70159 | 21046 ft | 329 kts | 90° |
| 2026-04-25 17:25 | 24.77810 | 125.72678 | 21046 ft | 329 kts | 90° |
| 2026-04-25 17:25 | 24.77810 | 125.75201 | 21046 ft | 329 kts | 90° |
| 2026-04-25 17:26 | 24.77810 | 125.77723 | 21046 ft | 329 kts | 90° |
| 2026-04-25 17:26 | 24.77809 | 125.80243 | 21046 ft | 329 kts | 90° |
| 2026-04-25 17:26 | 24.77808 | 125.82759 | 21046 ft | 329 kts | 90° |
| 2026-04-25 17:26 | 24.77806 | 125.85279 | 21046 ft | 329 kts | 90° |
| 2026-04-25 17:27 | 24.77804 | 125.87809 | 21046 ft | 329 kts | 90° |
| 2026-04-25 17:27 | 24.77802 | 125.90325 | 21046 ft | 329 kts | 90° |
| 2026-04-25 17:27 | 24.77799 | 125.92849 | 21046 ft | 329 kts | 90° |
| 2026-04-25 17:27 | 24.77797 | 125.94512 | 21046 ft | 329 kts | 90° |
| 2026-04-25 17:28 | 24.77792 | 125.97891 | 21046 ft | 329 kts | 90° |
| 2026-04-25 17:28 | 24.77788 | 126.00405 | 21046 ft | 329 kts | 90° |
| 2026-04-25 17:28 | 24.77783 | 126.02930 | 21046 ft | 329 kts | 90° |
| 2026-04-25 17:28 | 24.77778 | 126.05451 | 21046 ft | 329 kts | 90° |
| 2026-04-25 17:29 | 24.77772 | 126.07970 | 21046 ft | 329 kts | 90° |
| 2026-04-25 17:29 | 24.77766 | 126.10461 | 21046 ft | 329 kts | 90° |
| 2026-04-25 17:29 | 24.77760 | 126.13010 | 21046 ft | 329 kts | 90° |
| 2026-04-25 17:29 | 24.77753 | 126.15533 | 21046 ft | 329 kts | 90° |
| 2026-04-25 17:30 | 24.77746 | 126.18042 | 21046 ft | 329 kts | 90° |
| 2026-04-25 17:30 | 24.77739 | 126.20359 | 21046 ft | 329 kts | 90° |
| 2026-04-25 17:30 | 24.77731 | 126.22879 | 21046 ft | 329 kts | 90° |
| 2026-04-25 17:30 | 24.77722 | 126.25367 | 21046 ft | 329 kts | 90° |
| 2026-04-25 17:31 | 24.77713 | 126.27924 | 21046 ft | 329 kts | 90° |
| 2026-04-25 17:31 | 24.77704 | 126.30441 | 21046 ft | 329 kts | 90° |
| 2026-04-25 17:31 | 24.77694 | 126.32957 | 21046 ft | 329 kts | 90° |
| 2026-04-25 17:31 | 24.77684 | 126.35448 | 21046 ft | 329 kts | 90° |
| 2026-04-25 17:32 | 24.77673 | 126.37999 | 21046 ft | 329 kts | 90° |
| 2026-04-25 17:32 | 24.77662 | 126.40509 | 21046 ft | 329 kts | 90° |
| 2026-04-25 17:32 | 24.77651 | 126.43010 | 21046 ft | 329 kts | 90° |
| 2026-04-25 17:32 | 24.77639 | 126.45567 | 21046 ft | 329 kts | 90° |
| 2026-04-25 17:33 | 24.77626 | 126.48049 | 21046 ft | 329 kts | 90° |
| 2026-04-25 17:33 | 24.77613 | 126.50605 | 21046 ft | 329 kts | 90° |
| 2026-04-25 17:33 | 24.77600 | 126.53090 | 21046 ft | 329 kts | 90° |
| 2026-04-25 17:33 | 24.77587 | 126.55615 | 21046 ft | 329 kts | 90° |
| 2026-04-25 17:34 | 24.77572 | 126.58135 | 21046 ft | 329 kts | 90° |
| 2026-04-25 17:34 | 24.77558 | 126.60653 | 21046 ft | 329 kts | 90° |
| 2026-04-25 17:34 | 24.77543 | 126.63167 | 21046 ft | 329 kts | 90° |
| 2026-04-25 17:34 | 24.77528 | 126.65691 | 21046 ft | 329 kts | 90° |
| 2026-04-25 17:35 | 24.77512 | 126.68208 | 21046 ft | 329 kts | 90° |
| 2026-04-25 17:35 | 24.77495 | 126.70729 | 21046 ft | 329 kts | 90° |
| 2026-04-25 17:35 | 24.77479 | 126.73258 | 21046 ft | 329 kts | 90° |
| 2026-04-25 17:35 | 24.77462 | 126.75774 | 21046 ft | 329 kts | 90° |
| 2026-04-25 17:36 | 24.77444 | 126.78290 | 21046 ft | 329 kts | 90° |
| 2026-04-25 17:36 | 24.77426 | 126.80817 | 21046 ft | 329 kts | 90° |
| 2026-04-25 17:36 | 24.77408 | 126.83334 | 21046 ft | 329 kts | 90° |
| 2026-04-25 17:36 | 24.77389 | 126.85849 | 21046 ft | 329 kts | 90° |
| 2026-04-25 17:37 | 24.77370 | 126.88379 | 21046 ft | 329 kts | 90° |
| 2026-04-25 17:37 | 24.77350 | 126.90889 | 21046 ft | 329 kts | 90° |
| 2026-04-25 17:37 | 24.77330 | 126.93416 | 21046 ft | 329 kts | 90° |
| 2026-04-25 17:37 | 24.77309 | 126.95935 | 21046 ft | 329 kts | 90° |
| 2026-04-25 17:38 | 24.77288 | 126.98454 | 21046 ft | 329 kts | 90° |
| 2026-04-25 17:38 | 24.77274 | 127.00128 | 21046 ft | 329 kts | 90° |
| 2026-04-25 17:38 | 24.77245 | 127.03492 | 21043 ft | 326 kts | 90° |
| 2026-04-25 17:38 | 24.77224 | 127.05891 | 21037 ft | 306 kts | 90° |
| 2026-04-25 17:39 | 24.77203 | 127.08236 | 21046 ft | 309 kts | 90° |
| 2026-04-25 17:39 | 24.77181 | 127.10600 | 21046 ft | 309 kts | 90° |
| 2026-04-25 17:39 | 24.77159 | 127.12964 | 21046 ft | 308 kts | 90° |
| 2026-04-25 17:39 | 24.77137 | 127.15326 | 21044 ft | 308 kts | 91° |
| 2026-04-25 17:40 | 24.77114 | 127.17620 | 21038 ft | 293 kts | 91° |
| 2026-04-25 17:40 | 24.77092 | 127.19863 | 21012 ft | 296 kts | 91° |
| 2026-04-25 17:40 | 24.77070 | 127.22126 | 20831 ft | 295 kts | 91° |
| 2026-04-25 17:40 | 24.77047 | 127.24366 | 20440 ft | 290 kts | 91° |
| 2026-04-25 17:41 | 24.77024 | 127.26585 | 20128 ft | 290 kts | 91° |
| 2026-04-25 17:41 | 24.77001 | 127.28794 | 19818 ft | 288 kts | 91° |
| 2026-04-25 17:41 | 24.76978 | 127.30999 | 19509 ft | 287 kts | 91° |
| 2026-04-25 17:41 | 24.76954 | 127.33180 | 19204 ft | 285 kts | 91° |
| 2026-04-25 17:42 | 24.76930 | 127.35362 | 18899 ft | 284 kts | 91° |
| 2026-04-25 17:42 | 24.76907 | 127.37530 | 18594 ft | 283 kts | 91° |
| 2026-04-25 17:42 | 24.76883 | 127.39682 | 18281 ft | 281 kts | 91° |
| 2026-04-25 17:42 | 24.76858 | 127.41832 | 17994 ft | 280 kts | 91° |
| 2026-04-25 17:43 | 24.76834 | 127.43940 | 17699 ft | 278 kts | 91° |
| 2026-04-25 17:43 | 24.76809 | 127.46089 | 17400 ft | 277 kts | 91° |
| 2026-04-25 17:43 | 24.76785 | 127.48201 | 17104 ft | 276 kts | 91° |
| 2026-04-25 17:43 | 24.76760 | 127.50304 | 16811 ft | 274 kts | 91° |
| 2026-04-25 17:44 | 24.76735 | 127.52367 | 16523 ft | 273 kts | 91° |
| 2026-04-25 17:44 | 24.76709 | 127.54449 | 16231 ft | 272 kts | 91° |
| 2026-04-25 17:44 | 24.76520 | 127.56515 | 15941 ft | 270 kts | 101° |
| 2026-04-25 17:44 | 24.76051 | 127.58511 | 15651 ft | 269 kts | 107° |
| 2026-04-25 17:45 | 24.75481 | 127.60464 | 15367 ft | 268 kts | 108° |
| 2026-04-25 17:45 | 24.75285 | 127.61123 | 15269 ft | 267 kts | 108° |
| 2026-04-25 17:45 | 24.74357 | 127.64247 | 14758 ft | 253 kts | 108° |
| 2026-04-25 17:45 | 24.73814 | 127.66071 | 14459 ft | 251 kts | 108° |
| 2026-04-25 17:46 | 24.73270 | 127.67899 | 14150 ft | 250 kts | 108° |
| 2026-04-25 17:46 | 24.72731 | 127.69711 | 13845 ft | 249 kts | 108° |
| 2026-04-25 17:46 | 24.72192 | 127.71518 | 13540 ft | 248 kts | 108° |
| 2026-04-25 17:46 | 24.71657 | 127.73314 | 13239 ft | 247 kts | 108° |
| 2026-04-25 17:47 | 24.71123 | 127.75103 | 12936 ft | 245 kts | 108° |
| 2026-04-25 17:47 | 24.70593 | 127.76879 | 12639 ft | 244 kts | 108° |
| 2026-04-25 17:47 | 24.70063 | 127.78653 | 12342 ft | 243 kts | 108° |
| 2026-04-25 17:47 | 24.69532 | 127.80413 | 12042 ft | 242 kts | 109° |
| 2026-04-25 17:48 | 24.69012 | 127.83971 | 11428 ft | 240 kts | 71° |
| 2026-04-25 17:48 | 24.69931 | 127.85474 | 11126 ft | 238 kts | 43° |
| 2026-04-25 17:48 | 24.71376 | 127.86267 | 11015 ft | 236 kts | 7° |
| 2026-04-25 17:49 | 24.72959 | 127.85949 | 10995 ft | 235 kts | 329° |
| 2026-04-25 17:49 | 24.74194 | 127.84779 | 11012 ft | 236 kts | 323° |
| 2026-04-25 17:49 | 24.75722 | 127.84205 | 11008 ft | 236 kts | 0° |
| 2026-04-25 17:49 | 24.77259 | 127.84770 | 11007 ft | 238 kts | 38° |
| 2026-04-25 17:50 | 24.77964 | 127.85676 | 11008 ft | 238 kts | 63° |
| 2026-04-25 17:50 | 24.78152 | 127.87967 | 10536 ft | 226 kts | 109° |
| 2026-04-25 17:50 | 24.77523 | 127.89510 | 10118 ft | 223 kts | 117° |
| 2026-04-25 17:50 | 24.76797 | 127.91035 | 9698 ft | 221 kts | 118° |
| 2026-04-25 17:51 | 24.76090 | 127.92507 | 9294 ft | 220 kts | 118° |
| 2026-04-25 17:51 | 24.75369 | 127.93983 | 8882 ft | 218 kts | 123° |
| 2026-04-25 17:51 | 24.74240 | 127.95039 | 8454 ft | 216 kts | 161° |
| 2026-04-25 17:51 | 24.72780 | 127.95041 | 8027 ft | 213 kts | 200° |
| 2026-04-25 17:52 | 24.71469 | 127.94298 | 7623 ft | 211 kts | 212° |
| 2026-04-25 17:52 | 24.71050 | 127.94005 | 7484 ft | 211 kts | 216° |
| 2026-04-25 17:52 | 24.69961 | 127.91729 | 6789 ft | 208 kts | 270° |
| 2026-04-25 17:52 | 24.70329 | 127.90237 | 6392 ft | 207 kts | 301° |
| 2026-04-25 17:53 | 24.71405 | 127.89237 | 5975 ft | 206 kts | 340° |
| 2026-04-25 17:53 | 24.72816 | 127.89211 | 5563 ft | 207 kts | 18° |
| 2026-04-25 17:53 | 24.73954 | 127.90110 | 5156 ft | 206 kts | 57° |
| 2026-04-25 17:53 | 24.74256 | 127.91617 | 4751 ft | 205 kts | 99° |
| 2026-04-25 17:54 | 24.73835 | 127.93103 | 4353 ft | 204 kts | 112° |
| 2026-04-25 17:54 | 24.73291 | 127.94544 | 4072 ft | 202 kts | 116° |
| 2026-04-25 17:54 | 24.72534 | 127.95833 | 3992 ft | 195 kts | 131° |
| 2026-04-25 17:54 | 24.71590 | 127.96886 | 3984 ft | 193 kts | 137° |
| 2026-04-25 17:55 | 24.70580 | 127.97885 | 3600 ft | 198 kts | 139° |
| 2026-04-25 17:55 | 24.69564 | 127.98870 | 3269 ft | 191 kts | 139° |
| 2026-04-25 17:55 | 24.68575 | 127.99832 | 3019 ft | 190 kts | 139° |
| 2026-04-25 17:55 | 24.67593 | 128.00792 | 2757 ft | 189 kts | 139° |
| 2026-04-25 17:56 | 24.66616 | 128.01750 | 2492 ft | 188 kts | 139° |
| 2026-04-25 17:56 | 24.65644 | 128.02708 | 2226 ft | 187 kts | 139° |
| 2026-04-25 17:56 | 24.64681 | 128.03660 | 2048 ft | 186 kts | 139° |
| 2026-04-25 17:56 | 24.63721 | 128.04611 | 2001 ft | 187 kts | 138° |
| 2026-04-25 17:57 | 24.62786 | 128.05609 | 1995 ft | 187 kts | 128° |
| 2026-04-25 17:57 | 24.62343 | 128.06930 | 1999 ft | 187 kts | 89° |
| 2026-04-25 17:57 | 24.62758 | 128.08259 | 2002 ft | 187 kts | 57° |
| 2026-04-25 17:57 | 24.63001 | 128.08643 | 2003 ft | 187 kts | 53° |
| 2026-04-25 17:58 | 24.64426 | 128.10460 | 2004 ft | 187 kts | 47° |
| 2026-04-25 17:58 | 24.65287 | 128.11504 | 2002 ft | 187 kts | 47° |
| 2026-04-25 17:58 | 24.66152 | 128.12566 | 2002 ft | 187 kts | 48° |
| 2026-04-25 17:58 | 24.67013 | 128.13640 | 2003 ft | 187 kts | 48° |
| 2026-04-25 17:59 | 24.67869 | 128.14717 | 2000 ft | 187 kts | 49° |
| 2026-04-25 17:59 | 24.68722 | 128.15799 | 2000 ft | 187 kts | 49° |
| 2026-04-25 17:59 | 24.69568 | 128.16879 | 2001 ft | 187 kts | 49° |
| 2026-04-25 17:59 | 24.70418 | 128.17967 | 2002 ft | 187 kts | 49° |
| 2026-04-25 18:00 | 24.70978 | 128.18686 | 2002 ft | 187 kts | 49° |
| 2026-04-25 18:00 | 24.72106 | 128.20137 | 2000 ft | 187 kts | 49° |
| 2026-04-25 18:00 | 24.72952 | 128.21227 | 2000 ft | 187 kts | 49° |
| 2026-04-25 18:00 | 24.73798 | 128.22318 | 2002 ft | 187 kts | 49° |
| 2026-04-25 18:01 | 24.74639 | 128.23404 | 2002 ft | 187 kts | 49° |
| 2026-04-25 18:01 | 24.75484 | 128.24495 | 2002 ft | 187 kts | 49° |
| 2026-04-25 18:01 | 24.76325 | 128.25585 | 2001 ft | 187 kts | 50° |
| 2026-04-25 18:01 | 24.77012 | 128.26790 | 2000 ft | 187 kts | 73° |
| 2026-04-25 18:02 | 24.77136 | 128.27728 | 2003 ft | 188 kts | 89° |
| 2026-04-25 18:02 | 24.76922 | 128.29134 | 2002 ft | 187 kts | 111° |
| 2026-04-25 18:02 | 24.76213 | 128.30320 | 2000 ft | 187 kts | 139° |
| 2026-04-25 18:02 | 24.75074 | 128.30953 | 2001 ft | 186 kts | 171° |
| 2026-04-25 18:03 | 24.73807 | 128.30805 | 2000 ft | 185 kts | 205° |
| 2026-04-25 18:03 | 24.72829 | 128.29385 | 2001 ft | 184 kts | 265° |
| 2026-04-25 18:03 | 24.72927 | 128.28449 | 2003 ft | 184 kts | 288° |
| 2026-04-25 18:03 | 24.73622 | 128.27294 | 2001 ft | 184 kts | 319° |
| 2026-04-25 18:04 | 24.75182 | 128.26634 | 2002 ft | 185 kts | 359° |
| 2026-04-25 18:04 | 24.76034 | 128.26795 | 2002 ft | 186 kts | 22° |
| 2026-04-25 18:04 | 24.77046 | 128.27671 | 2005 ft | 187 kts | 45° |
| 2026-04-25 18:04 | 24.77986 | 128.28656 | 2003 ft | 187 kts | 41° |
| 2026-04-25 18:05 | 24.78950 | 128.29619 | 2001 ft | 187 kts | 42° |
| 2026-04-25 18:05 | 24.79888 | 128.30603 | 2002 ft | 187 kts | 44° |
| 2026-04-25 18:05 | 24.80804 | 128.31623 | 2016 ft | 187 kts | 46° |
| 2026-04-25 18:05 | 24.81695 | 128.32663 | 2162 ft | 187 kts | 47° |
| 2026-04-25 18:06 | 24.82594 | 128.33748 | 2459 ft | 205 kts | 47° |
| 2026-04-25 18:06 | 24.83557 | 128.34937 | 2800 ft | 209 kts | 48° |
| 2026-04-25 18:06 | 24.84520 | 128.36147 | 3169 ft | 211 kts | 49° |
| 2026-04-25 18:06 | 24.85483 | 128.37374 | 3540 ft | 220 kts | 49° |
| 2026-04-25 18:07 | 24.86502 | 128.38681 | 3961 ft | 224 kts | 49° |
| 2026-04-25 18:07 | 24.87500 | 128.39967 | 4362 ft | 225 kts | 49° |
| 2026-04-25 18:07 | 24.88519 | 128.41287 | 4800 ft | 226 kts | 49° |
| 2026-04-25 18:07 | 24.89555 | 128.42630 | 5229 ft | 228 kts | 49° |
| 2026-04-25 18:08 | 24.90568 | 128.43946 | 5649 ft | 229 kts | 49° |
| 2026-04-25 18:08 | 24.91604 | 128.45293 | 6081 ft | 231 kts | 49° |
| 2026-04-25 18:08 | 24.92646 | 128.46649 | 6523 ft | 232 kts | 49° |
| 2026-04-25 18:08 | 24.93693 | 128.48012 | 6961 ft | 234 kts | 49° |
| 2026-04-25 18:09 | 24.94749 | 128.49387 | 7403 ft | 236 kts | 50° |
| 2026-04-25 18:09 | 24.95810 | 128.50769 | 7843 ft | 237 kts | 50° |
| 2026-04-25 18:09 | 24.96879 | 128.52162 | 8293 ft | 239 kts | 50° |
| 2026-04-25 18:09 | 24.97606 | 128.53109 | 8596 ft | 240 kts | 50° |
| 2026-04-25 18:10 | 24.99039 | 128.54977 | 9196 ft | 242 kts | 50° |
| 2026-04-25 18:10 | 25.00130 | 128.56400 | 9653 ft | 244 kts | 50° |
| 2026-04-25 18:10 | 25.01227 | 128.57830 | 10113 ft | 245 kts | 50° |
| 2026-04-25 18:10 | 25.02332 | 128.59272 | 10569 ft | 247 kts | 50° |
| 2026-04-25 18:11 | 25.03459 | 128.60742 | 11067 ft | 256 kts | 50° |
| 2026-04-25 18:11 | 25.04643 | 128.62253 | 11572 ft | 263 kts | 45° |
| 2026-04-25 18:11 | 25.06170 | 128.63330 | 12072 ft | 264 kts | 17° |
| 2026-04-25 18:11 | 25.07993 | 128.63406 | 12573 ft | 265 kts | 345° |
| 2026-04-25 18:12 | 25.09656 | 128.62543 | 13088 ft | 267 kts | 328° |
| 2026-04-25 18:12 | 25.11221 | 128.61428 | 13627 ft | 269 kts | 326° |
| 2026-04-25 18:12 | 25.12759 | 128.60289 | 14161 ft | 271 kts | 326° |
| 2026-04-25 18:12 | 25.14345 | 128.59095 | 14730 ft | 274 kts | 325° |
| 2026-04-25 18:13 | 25.15924 | 128.57895 | 15289 ft | 276 kts | 325° |
| 2026-04-25 18:13 | 25.17503 | 128.56689 | 15846 ft | 277 kts | 325° |
| 2026-04-25 18:13 | 25.19085 | 128.55476 | 16402 ft | 277 kts | 325° |
| 2026-04-25 18:14 | 25.22254 | 128.53041 | 17486 ft | 278 kts | 325° |
| 2026-04-25 18:14 | 25.23840 | 128.51820 | 17947 ft | 282 kts | 325° |
| 2026-04-25 18:14 | 25.25486 | 128.50553 | 18047 ft | 292 kts | 325° |
| 2026-04-25 18:14 | 25.27129 | 128.49288 | 18054 ft | 290 kts | 325° |
| 2026-04-25 18:15 | 25.28805 | 128.47996 | 18045 ft | 290 kts | 325° |
| 2026-04-25 18:15 | 25.30461 | 128.46720 | 18044 ft | 290 kts | 325° |
| 2026-04-25 18:15 | 25.32122 | 128.45439 | 18044 ft | 290 kts | 325° |
| 2026-04-25 18:15 | 25.33773 | 128.44165 | 18044 ft | 290 kts | 325° |
| 2026-04-25 18:16 | 25.35428 | 128.42888 | 18044 ft | 290 kts | 324° |
| 2026-04-25 18:16 | 25.37085 | 128.41609 | 18044 ft | 290 kts | 324° |
| 2026-04-25 18:16 | 25.40386 | 128.39059 | 18044 ft | 290 kts | 324° |
| 2026-04-25 18:17 | 25.42045 | 128.37777 | 18044 ft | 290 kts | 324° |
| 2026-04-25 18:17 | 25.43697 | 128.36500 | 18044 ft | 290 kts | 324° |
| 2026-04-25 18:17 | 25.45351 | 128.35221 | 18044 ft | 290 kts | 324° |
| 2026-04-25 18:17 | 25.47008 | 128.33939 | 18044 ft | 290 kts | 324° |
| 2026-04-25 18:18 | 25.48641 | 128.32676 | 18044 ft | 290 kts | 324° |
| 2026-04-25 18:18 | 25.50296 | 128.31395 | 18036 ft | 278 kts | 324° |
| 2026-04-25 18:18 | 25.51848 | 128.30193 | 18043 ft | 277 kts | 324° |
| 2026-04-25 18:18 | 25.53426 | 128.28971 | 18045 ft | 277 kts | 324° |
| 2026-04-25 18:19 | 25.55007 | 128.27746 | 18044 ft | 277 kts | 324° |
| 2026-04-25 18:19 | 25.56584 | 128.26524 | 18044 ft | 277 kts | 324° |
| 2026-04-25 18:19 | 25.58189 | 128.25280 | 17892 ft | 280 kts | 324° |
| 2026-04-25 18:19 | 25.59739 | 128.24078 | 17653 ft | 275 kts | 324° |
| 2026-04-25 18:20 | 25.61302 | 128.22865 | 17366 ft | 275 kts | 324° |
| 2026-04-25 18:20 | 25.62858 | 128.21658 | 17133 ft | 273 kts | 324° |
| 2026-04-25 18:20 | 25.64409 | 128.20453 | 16800 ft | 271 kts | 324° |
| 2026-04-25 18:20 | 25.65951 | 128.19256 | 16450 ft | 269 kts | 324° |
| 2026-04-25 18:21 | 25.67452 | 128.18091 | 16103 ft | 257 kts | 324° |
| 2026-04-25 18:21 | 25.68902 | 128.16965 | 15730 ft | 254 kts | 324° |
| 2026-04-25 18:21 | 25.70339 | 128.15849 | 15367 ft | 252 kts | 324° |
| 2026-04-25 18:21 | 25.71772 | 128.14734 | 15007 ft | 251 kts | 324° |
| 2026-04-25 18:22 | 25.73191 | 128.13630 | 14650 ft | 249 kts | 324° |
| 2026-04-25 18:22 | 25.73673 | 128.13255 | 14529 ft | 249 kts | 324° |
| 2026-04-25 18:22 | 25.76012 | 128.11435 | 13945 ft | 246 kts | 324° |
| 2026-04-25 18:22 | 25.77408 | 128.10349 | 13590 ft | 245 kts | 324° |
| 2026-04-25 18:23 | 25.78801 | 128.09264 | 13240 ft | 243 kts | 324° |
| 2026-04-25 18:23 | 25.80182 | 128.08188 | 12893 ft | 242 kts | 324° |
| 2026-04-25 18:23 | 25.81557 | 128.07117 | 12546 ft | 241 kts | 324° |
| 2026-04-25 18:23 | 25.82902 | 128.06069 | 12191 ft | 230 kts | 324° |
| 2026-04-25 18:24 | 25.84196 | 128.05061 | 11825 ft | 226 kts | 324° |
| 2026-04-25 18:24 | 25.85476 | 128.04063 | 11457 ft | 225 kts | 324° |
| 2026-04-25 18:24 | 25.86751 | 128.03069 | 11098 ft | 223 kts | 324° |
| 2026-04-25 18:24 | 25.88020 | 128.02080 | 10738 ft | 222 kts | 324° |
| 2026-04-25 18:25 | 25.89282 | 128.01095 | 10383 ft | 221 kts | 324° |
| 2026-04-25 18:25 | 25.90535 | 128.00116 | 10024 ft | 220 kts | 324° |
| 2026-04-25 18:25 | 25.91781 | 127.99144 | 9671 ft | 218 kts | 324° |
| 2026-04-25 18:25 | 25.93023 | 127.98174 | 9325 ft | 217 kts | 324° |
| 2026-04-25 18:26 | 25.94254 | 127.97211 | 8971 ft | 216 kts | 324° |
| 2026-04-25 18:26 | 25.95479 | 127.96254 | 8623 ft | 215 kts | 324° |
| 2026-04-25 18:26 | 25.96696 | 127.95303 | 8278 ft | 214 kts | 324° |
| 2026-04-25 18:26 | 25.97912 | 127.94352 | 7931 ft | 213 kts | 324° |
| 2026-04-25 18:27 | 25.99114 | 127.93412 | 7589 ft | 211 kts | 324° |
| 2026-04-25 18:27 | 26.00316 | 127.92472 | 7247 ft | 210 kts | 324° |
| 2026-04-25 18:27 | 26.01493 | 127.91551 | 6903 ft | 203 kts | 324° |
| 2026-04-25 18:27 | 26.02627 | 127.90664 | 6543 ft | 197 kts | 324° |
| 2026-04-25 18:28 | 26.03746 | 127.89789 | 6182 ft | 196 kts | 324° |
| 2026-04-25 18:28 | 26.04860 | 127.88918 | 5826 ft | 195 kts | 324° |
| 2026-04-25 18:28 | 26.05962 | 127.88054 | 5469 ft | 194 kts | 324° |
| 2026-04-25 18:29 | 26.08137 | 127.86350 | 4769 ft | 189 kts | 324° |
| 2026-04-25 18:29 | 26.09196 | 127.85521 | 4400 ft | 184 kts | 324° |
| 2026-04-25 18:30 | 26.09657 | 127.82000 | 3999 ft | 179 kts | 240° |
| 2026-04-25 18:30 | 26.08997 | 127.80824 | 3999 ft | 179 kts | 238° |
| 2026-04-25 18:30 | 26.08421 | 127.79603 | 4003 ft | 179 kts | 246° |
| 2026-04-25 18:30 | 26.07950 | 127.78333 | 4003 ft | 179 kts | 249° |
| 2026-04-25 18:31 | 26.07497 | 127.77040 | 4002 ft | 176 kts | 249° |
| 2026-04-25 18:31 | 26.07060 | 127.75780 | 3913 ft | 176 kts | 249° |
| 2026-04-25 18:31 | 26.06618 | 127.74501 | 3504 ft | 176 kts | 249° |
| 2026-04-25 18:31 | 26.06182 | 127.73242 | 3122 ft | 174 kts | 249° |
| 2026-04-25 18:32 | 26.05751 | 127.71994 | 2762 ft | 171 kts | 249° |
| 2026-04-25 18:32 | 26.05329 | 127.70771 | 2420 ft | 169 kts | 249° |
| 2026-04-25 18:32 | 26.04909 | 127.69557 | 2094 ft | 167 kts | 249° |
| 2026-04-25 18:32 | 26.04492 | 127.68348 | 2009 ft | 168 kts | 249° |
| 2026-04-25 18:33 | 26.04071 | 127.67133 | 1998 ft | 168 kts | 249° |
| 2026-04-25 18:33 | 26.03653 | 127.65923 | 2012 ft | 168 kts | 249° |
| 2026-04-25 18:33 | 26.03233 | 127.64710 | 2016 ft | 168 kts | 249° |
| 2026-04-25 18:33 | 26.02820 | 127.63516 | 2006 ft | 160 kts | 249° |
| 2026-04-25 18:34 | 26.02424 | 127.62372 | 2001 ft | 158 kts | 249° |
| 2026-04-25 18:34 | 26.02031 | 127.61237 | 2001 ft | 158 kts | 249° |
| 2026-04-25 18:34 | 26.01636 | 127.60095 | 2002 ft | 158 kts | 249° |
| 2026-04-25 18:34 | 26.01245 | 127.58966 | 2003 ft | 154 kts | 249° |
| 2026-04-25 18:35 | 26.00863 | 127.57861 | 2000 ft | 153 kts | 249° |
| 2026-04-25 18:35 | 26.00481 | 127.56757 | 2001 ft | 153 kts | 249° |
| 2026-04-25 18:35 | 26.00100 | 127.55656 | 2000 ft | 153 kts | 249° |
| 2026-04-25 18:35 | 25.99719 | 127.54555 | 2002 ft | 153 kts | 249° |
| 2026-04-25 18:36 | 25.99338 | 127.53452 | 2002 ft | 153 kts | 249° |
| 2026-04-25 18:36 | 25.98958 | 127.52352 | 2000 ft | 153 kts | 249° |
| 2026-04-25 18:36 | 25.98582 | 127.51262 | 2002 ft | 153 kts | 249° |
| 2026-04-25 18:36 | 25.98201 | 127.50158 | 2000 ft | 153 kts | 249° |
| 2026-04-25 18:37 | 25.97822 | 127.49060 | 2002 ft | 153 kts | 249° |
| 2026-04-25 18:37 | 25.97436 | 127.47942 | 2002 ft | 153 kts | 249° |
| 2026-04-25 18:37 | 25.97199 | 127.46820 | 2001 ft | 153 kts | 269° |
| 2026-04-25 18:37 | 25.97412 | 127.45670 | 2003 ft | 153 kts | 290° |
| 2026-04-25 18:38 | 25.97810 | 127.44575 | 1999 ft | 153 kts | 291° |
| 2026-04-25 18:38 | 25.98479 | 127.43732 | 1990 ft | 145 kts | 338° |
| 2026-04-25 18:38 | 25.99476 | 127.43634 | 2005 ft | 145 kts | 6° |
| 2026-04-25 18:38 | 26.00467 | 127.43858 | 2004 ft | 145 kts | 14° |
| 2026-04-25 18:39 | 26.01432 | 127.44168 | 2001 ft | 145 kts | 16° |
| 2026-04-25 18:39 | 26.02396 | 127.44490 | 2000 ft | 145 kts | 16° |
| 2026-04-25 18:39 | 26.03365 | 127.44801 | 2001 ft | 145 kts | 15° |
| 2026-04-25 18:39 | 26.04341 | 127.45097 | 2002 ft | 145 kts | 14° |
| 2026-04-25 18:40 | 26.05319 | 127.45376 | 2002 ft | 145 kts | 13° |
| 2026-04-25 18:40 | 26.06296 | 127.45641 | 2003 ft | 145 kts | 13° |
| 2026-04-25 18:40 | 26.07276 | 127.45896 | 2002 ft | 145 kts | 12° |
| 2026-04-25 18:40 | 26.08259 | 127.46144 | 2001 ft | 145 kts | 12° |
| 2026-04-25 18:41 | 26.09244 | 127.46385 | 2002 ft | 145 kts | 12° |
| 2026-04-25 18:41 | 26.10227 | 127.46621 | 2002 ft | 145 kts | 11° |
| 2026-04-25 18:41 | 26.11212 | 127.46855 | 2003 ft | 145 kts | 11° |
| 2026-04-25 18:41 | 26.12195 | 127.47093 | 2001 ft | 145 kts | 14° |
| 2026-04-25 18:42 | 26.13095 | 127.47579 | 2000 ft | 145 kts | 36° |
| 2026-04-25 18:42 | 26.13360 | 127.47816 | 2005 ft | 145 kts | 40° |
| 2026-04-25 18:42 | 26.14512 | 127.49184 | 2004 ft | 145 kts | 49° |
| 2026-04-25 18:42 | 26.15156 | 127.50052 | 2001 ft | 144 kts | 50° |
| 2026-04-25 18:43 | 26.15776 | 127.50898 | 2005 ft | 141 kts | 50° |
| 2026-04-25 18:43 | 26.16401 | 127.51744 | 2013 ft | 141 kts | 50° |
| 2026-04-25 18:43 | 26.17025 | 127.52579 | 2005 ft | 141 kts | 50° |
| 2026-04-25 18:43 | 26.17652 | 127.53410 | 2003 ft | 141 kts | 49° |
| 2026-04-25 18:44 | 26.18287 | 127.54242 | 2002 ft | 141 kts | 49° |
| 2026-04-25 18:44 | 26.18923 | 127.55070 | 2001 ft | 141 kts | 49° |
| 2026-04-25 18:44 | 26.19562 | 127.55898 | 2002 ft | 141 kts | 49° |
| 2026-04-25 18:44 | 26.20198 | 127.56719 | 2001 ft | 141 kts | 49° |
| 2026-04-25 18:45 | 26.20839 | 127.57544 | 1999 ft | 141 kts | 49° |
| 2026-04-25 18:45 | 26.21479 | 127.58365 | 2003 ft | 141 kts | 49° |
| 2026-04-25 18:45 | 26.22120 | 127.59187 | 1999 ft | 141 kts | 49° |
| 2026-04-25 18:45 | 26.22762 | 127.60010 | 2000 ft | 141 kts | 49° |
| 2026-04-25 18:46 | 26.23397 | 127.60821 | 1994 ft | 135 kts | 49° |
| 2026-04-25 18:46 | 26.24085 | 127.61504 | 1993 ft | 133 kts | 24° |
| 2026-04-25 18:46 | 26.24980 | 127.61735 | 2001 ft | 132 kts | 14° |
| 2026-04-25 18:46 | 26.25622 | 127.62405 | 2000 ft | 134 kts | 70° |
| 2026-04-25 18:47 | 26.25845 | 127.63415 | 2001 ft | 134 kts | 64° |
| 2026-04-25 18:47 | 26.26487 | 127.64154 | 2007 ft | 134 kts | 44° |
| 2026-04-25 18:47 | 26.27110 | 127.64919 | 2004 ft | 133 kts | 47° |
| 2026-04-25 18:47 | 26.27724 | 127.65692 | 2003 ft | 133 kts | 49° |
| 2026-04-25 18:48 | 26.28123 | 127.66216 | 1986 ft | 134 kts | 49° |
| 2026-04-25 18:48 | 26.28912 | 127.67280 | 1835 ft | 133 kts | 50° |
| 2026-04-25 18:48 | 26.29298 | 127.67810 | 1733 ft | 133 kts | 50° |
| 2026-04-25 18:48 | 26.29878 | 127.68611 | 1567 ft | 133 kts | 51° |
| 2026-04-25 18:49 | 26.30644 | 127.69672 | 1346 ft | 132 kts | 51° |
| 2026-04-25 18:49 | 26.31033 | 127.70209 | 1222 ft | 132 kts | 51° |
| 2026-04-25 18:49 | 26.31793 | 127.71259 | 992 ft | 131 kts | 50° |
| 2026-04-25 18:49 | 26.32368 | 127.72051 | 817 ft | 131 kts | 50° |
| 2026-04-25 18:50 | 26.32754 | 127.72584 | 696 ft | 131 kts | 51° |
| 2026-04-25 18:50 | 26.33305 | 127.73371 | 509 ft | 127 kts | 52° |
| 2026-04-25 18:50 | 26.33852 | 127.74121 | 300 ft | 124 kts | 49° |
| 2026-04-25 18:50 | 26.34388 | 127.74848 | 202 ft | 119 kts | 51° |
| 2026-04-25 18:51 | 26.34894 | 127.75536 | 152 ft | 104 kts | 52° |
| 2026-04-25 18:51 | 26.35086 | 127.75802 | 143 ft | 18 kts | 53° |
| 2026-04-25 18:51 | 26.35099 | 127.75822 | 142 ft | 4 kts | 53° |
| 2026-04-25 18:51 | 26.35120 | 127.75852 | 141 ft | 6 kts | 51° |
| 2026-04-25 18:52 | 26.35144 | 127.75881 | 140 ft | 4 kts | 46° |
| 2026-04-25 18:52 | 26.35163 | 127.75903 | 139 ft | 4 kts | 46° |
| 2026-04-25 18:52 | 26.35178 | 127.75922 | 139 ft | 3 kts | 46° |
| 2026-04-25 18:52 | 26.35199 | 127.75947 | 138 ft | 5 kts | 46° |
| 2026-04-25 18:53 | 26.35236 | 127.75990 | 137 ft | 12 kts | 46° |
| 2026-04-25 18:53 | 26.35284 | 127.76046 | 137 ft | 9 kts | 45° |
| 2026-04-25 18:53 | 26.35326 | 127.76085 | 136 ft | 8 kts | 36° |
| 2026-04-25 18:53 | 26.35383 | 127.76108 | 134 ft | 9 kts | 2° |
| 2026-04-25 18:54 | 26.35487 | 127.76038 | 134 ft | 9 kts | 323° |
| 2026-04-25 18:54 | 26.35536 | 127.76019 | 134 ft | 7 kts | 5° |
| 2026-04-25 18:54 | 26.35571 | 127.76049 | 133 ft | 7 kts | 50° |
| 2026-04-25 18:55 | 26.35601 | 127.76091 | 132 ft | 6 kts | 50° |
| 2026-04-25 18:55 | 26.35623 | 127.76119 | 132 ft | 3 kts | 50° |
| 2026-04-25 18:55 | 26.35635 | 127.76136 | 132 ft | 3 kts | 50° |
| 2026-04-25 18:55 | 26.35646 | 127.76151 | 132 ft | 2 kts | 50° |
| 2026-04-25 18:56 | 26.35657 | 127.76166 | 131 ft | 4 kts | 51° |
| 2026-04-25 18:56 | 26.35682 | 127.76201 | 126 ft | 7 kts | 51° |
| 2026-04-25 18:56 | 26.35719 | 127.76252 | 128 ft | 9 kts | 51° |
| 2026-04-25 18:56 | 26.35764 | 127.76313 | 126 ft | 11 kts | 51° |
| 2026-04-25 18:57 | 26.35812 | 127.76379 | 123 ft | 11 kts | 50° |
| 2026-04-25 18:57 | 26.35869 | 127.76440 | 123 ft | 12 kts | 39° |
| 2026-04-25 18:57 | 26.35933 | 127.76497 | 122 ft | 12 kts | 38° |
| 2026-04-25 18:57 | 26.35976 | 127.76535 | 122 ft | 12 kts | 37° |
| 2026-04-25 18:58 | 26.36064 | 127.76610 | 124 ft | 12 kts | 37° |
| 2026-04-25 18:58 | 26.36177 | 127.76741 | 121 ft | 12 kts | 50° |
| 2026-04-25 18:58 | 26.36227 | 127.76811 | 116 ft | 10 kts | 44° |
| 2026-04-25 18:59 | 26.36296 | 127.76813 | 117 ft | 0 kts | 331° |
| 2026-04-25 18:59 | 26.36312 | 127.76801 | 120 ft | 2 kts | 329° |
| 2026-04-25 19:00 | 26.36320 | 127.76797 | 119 ft | 0 kts | 332° |